Time;durP1;ratioP1;P1;durP2;ratioP2;P2;SDS_P1;SDS_P2;PMS_P1;PMS_P2;Temp;Humidity;BMP_temperature;BMP_pressure;BME280_temperature;BME280_humidity;BME280_pressure;Samples;Min_cycle;Max_cycle;Signal;HPM_P1;HPM_P2
2022/09/17 00:00:46;;;;;;;7.90;7.40;;;10.30;99.90;;;;;;4930630;29;20732;-80
2022/09/17 00:03:13;;;;;;;7.77;7.27;;;10.20;99.90;;;;;;4927134;29;20266;-80
2022/09/17 00:05:40;;;;;;;7.50;7.10;;;10.20;99.90;;;;;;4931101;29;20762;-80
2022/09/17 00:08:09;;;;;;;8.00;7.40;;;10.10;99.90;;;;;;4926150;29;20337;-80
2022/09/17 00:10:39;;;;;;;7.80;7.30;;;10.10;99.90;;;;;;4932610;29;20577;-80
2022/09/17 00:13:07;;;;;;;7.80;7.20;;;10.00;99.90;;;;;;4928218;29;20210;-80
2022/09/17 00:15:40;;;;;;;8.00;7.40;;;10.00;99.90;;;;;;4955253;29;20234;-80
2022/09/17 00:18:06;;;;;;;7.70;7.13;;;10.00;99.90;;;;;;4931877;29;20623;-80
2022/09/17 00:20:38;;;;;;;8.00;7.40;;;10.10;99.90;;;;;;4931354;29;20230;-80
2022/09/17 00:23:05;;;;;;;8.10;7.60;;;10.20;99.90;;;;;;4931413;29;20199;-80
2022/09/17 00:25:32;;;;;;;7.50;7.10;;;10.20;99.90;;;;;;4953627;29;20850;-80
2022/09/17 00:27:59;;;;;;;7.60;7.20;;;10.30;99.90;;;;;;4953869;29;20238;-80
2022/09/17 00:30:26;;;;;;;7.80;7.40;;;10.40;99.90;;;;;;4928906;29;20224;-80
2022/09/17 00:32:56;;;;;;;7.93;7.43;;;10.40;99.90;;;;;;4932531;29;20203;-81
2022/09/17 00:35:23;;;;;;;7.90;7.40;;;10.40;99.90;;;;;;4948046;29;20297;-80
2022/09/17 00:37:50;;;;;;;2.30;2.20;;;10.40;99.90;;;;;;4945292;29;20202;-79
2022/09/17 00:40:17;;;;;;;5.10;4.80;;;10.40;99.90;;;;;;4947828;29;20286;-79
2022/09/17 00:42:45;;;;;;;4.83;4.60;;;10.40;99.90;;;;;;4932539;29;20206;-80
2022/09/17 00:45:12;;;;;;;7.03;6.63;;;10.50;99.90;;;;;;4952037;29;20213;-80
2022/09/17 00:47:42;;;;;;;9.07;8.57;;;10.50;99.90;;;;;;4928819;29;20238;-79
2022/09/17 00:50:15;;;;;;;9.33;8.50;;;10.50;99.90;;;;;;4951293;29;20224;-80
2022/09/17 00:52:45;;;;;;;9.57;8.93;;;10.60;99.90;;;;;;4945867;29;20191;-80
2022/09/17 00:55:16;;;;;;;2.20;2.10;;;10.50;99.90;;;;;;4936088;29;20747;-81
2022/09/17 00:57:45;;;;;;;2.50;2.30;;;10.60;99.90;;;;;;4933060;29;20203;-80
2022/09/17 01:00:14;;;;;;;2.30;2.10;;;10.60;99.90;;;;;;4928283;29;20708;-80
2022/09/17 01:02:42;;;;;;;2.10;2.00;;;10.60;99.90;;;;;;4950799;29;20615;-80
2022/09/17 01:05:11;;;;;;;4.17;2.20;;;10.60;99.90;;;;;;4929543;29;20248;-81
2022/09/17 01:07:57;;;;;;;1.97;1.87;;;10.70;99.90;;;;;;4930799;29;20574;-80
2022/09/17 01:10:38;;;;;;;2.53;2.10;;;10.70;99.90;;;;;;4930949;29;20222;-81
2022/09/17 01:13:19;;;;;;;2.20;2.10;;;10.70;99.90;;;;;;4931703;29;20211;-81
2022/09/17 01:16:00;;;;;;;2.83;2.10;;;10.70;99.90;;;;;;4934910;29;20231;-81
2022/09/17 01:18:39;;;;;;;2.20;2.10;;;10.80;99.90;;;;;;4953104;29;20214;-80
2022/09/17 01:21:32;;;;;;;2.00;1.90;;;10.80;99.90;;;;;;4947851;29;20690;-80
2022/09/17 01:24:40;;;;;;;2.30;2.20;;;10.90;99.90;;;;;;4935742;29;20226;-81
2022/09/17 01:27:39;;;;;;;2.33;2.10;;;10.80;99.90;;;;;;4941005;29;20233;-81
2022/09/17 01:30:20;;;;;;;2.07;1.97;;;10.80;99.90;;;;;;4927405;29;20227;-81
2022/09/17 01:32:52;;;;;;;2.97;2.87;;;10.90;99.90;;;;;;4940543;29;20195;-81
2022/09/17 01:35:25;;;;;;;2.90;2.80;;;10.80;99.90;;;;;;4933131;29;20210;-81
2022/09/17 01:38:00;;;;;;;3.40;3.20;;;10.80;99.90;;;;;;4936458;29;20199;-80
2022/09/17 01:40:33;;;;;;;3.40;3.10;;;10.80;99.90;;;;;;4931816;29;20230;-81
2022/09/17 01:43:06;;;;;;;2.60;2.50;;;10.70;99.90;;;;;;4949106;29;20624;-80
2022/09/17 01:45:38;;;;;;;2.60;2.40;;;10.70;99.90;;;;;;4948831;29;20675;-81
2022/09/17 01:48:11;;;;;;;2.50;2.40;;;10.70;99.90;;;;;;4931250;29;20203;-80
2022/09/17 01:50:41;;;;;;;2.70;2.50;;;10.70;99.90;;;;;;4936837;29;20719;-80
2022/09/17 01:53:10;;;;;;;2.40;2.30;;;10.70;99.90;;;;;;4956446;29;20659;-81
2022/09/17 01:55:40;;;;;;;2.43;2.23;;;10.80;99.90;;;;;;4951120;29;20195;-81
2022/09/17 01:58:12;;;;;;;2.47;2.37;;;10.80;99.90;;;;;;4950413;29;20198;-81
2022/09/17 02:00:41;;;;;;;2.30;2.20;;;10.70;99.90;;;;;;4944793;29;20390;-80
2022/09/17 02:03:15;;;;;;;3.13;2.27;;;10.70;99.90;;;;;;4948254;29;20206;-81
2022/09/17 02:05:45;;;;;;;2.17;2.07;;;10.70;99.90;;;;;;4934502;29;20236;-81
2022/09/17 02:08:16;;;;;;;2.33;2.23;;;10.70;99.90;;;;;;4956017;29;20210;-80
2022/09/17 02:10:45;;;;;;;2.40;2.30;;;10.70;99.90;;;;;;4930863;29;20215;-80
2022/09/17 02:13:18;;;;;;;4.20;3.90;;;10.70;99.90;;;;;;4951036;29;20297;-81
2022/09/17 02:15:50;;;;;;;4.10;3.80;;;10.70;99.90;;;;;;4932339;29;20203;-80
2022/09/17 02:18:27;;;;;;;3.80;3.60;;;10.70;99.90;;;;;;4931282;29;20721;-80
2022/09/17 02:21:02;;;;;;;6.77;6.27;;;10.70;99.90;;;;;;4931780;29;20723;-80
2022/09/17 02:23:34;;;;;;;7.00;6.60;;;10.70;99.90;;;;;;4949055;29;20192;-80
2022/09/17 02:26:07;;;;;;;7.27;6.87;;;10.70;99.90;;;;;;4931865;29;20624;-81
2022/09/17 02:28:42;;;;;;;7.40;7.00;;;10.60;99.90;;;;;;4946894;29;20202;-80
2022/09/17 02:31:09;;;;;;;8.40;7.70;;;10.60;99.90;;;;;;4944925;29;20270;-80
2022/09/17 02:33:40;;;;;;;7.80;7.20;;;10.50;99.90;;;;;;4936188;29;20202;-80
2022/09/17 02:36:07;;;;;;;3.20;3.00;;;10.50;99.90;;;;;;4930746;29;20199;-80
2022/09/17 02:38:34;;;;;;;3.20;3.00;;;10.40;99.90;;;;;;4947936;29;20199;-80
2022/09/17 02:41:08;;;;;;;3.00;2.80;;;10.40;99.90;;;;;;4942049;29;20226;-80
2022/09/17 02:43:42;;;;;;;3.63;3.43;;;10.40;99.90;;;;;;4945735;29;20194;-80
2022/09/17 02:46:30;;;;;;;3.67;3.47;;;10.40;99.90;;;;;;4939820;29;20192;-80
2022/09/17 02:49:18;;;;;;;3.20;3.00;;;10.40;99.90;;;;;;4934796;29;20246;-80
2022/09/17 02:51:54;;;;;;;3.43;2.80;;;10.40;99.90;;;;;;4943061;29;20215;-80
2022/09/17 02:54:29;;;;;;;2.73;2.53;;;10.40;99.90;;;;;;4928915;29;20261;-80
2022/09/17 02:57:04;;;;;;;2.60;2.40;;;10.40;99.90;;;;;;4937626;29;20277;-81
2022/09/17 02:59:40;;;;;;;2.90;2.70;;;10.40;99.90;;;;;;4936608;29;20198;-80
2022/09/17 03:02:12;;;;;;;3.13;2.83;;;10.40;99.90;;;;;;4925122;28;20306;-78
2022/09/17 03:04:42;;;;;;;2.80;2.60;;;10.40;99.90;;;;;;4962722;28;20257;-79
2022/09/17 03:07:11;;;;;;;2.77;2.53;;;10.30;99.90;;;;;;4941677;29;20602;-78
2022/09/17 03:09:39;;;;;;;5.73;2.63;;;10.30;99.90;;;;;;4939232;29;20679;-78
2022/09/17 03:12:06;;;;;;;2.93;2.73;;;10.30;99.90;;;;;;4945652;29;20281;-78
2022/09/17 03:14:33;;;;;;;3.20;2.90;;;10.30;99.90;;;;;;4927875;29;20191;-81
2022/09/17 03:17:00;;;;;;;2.90;2.70;;;10.30;99.90;;;;;;4949550;28;20206;-81
2022/09/17 03:19:27;;;;;;;3.10;2.90;;;10.30;99.90;;;;;;4957529;28;20227;-80
2022/09/17 03:21:55;;;;;;;2.90;2.70;;;10.30;99.90;;;;;;4949590;28;20216;-81
2022/09/17 03:24:22;;;;;;;2.90;2.70;;;10.30;99.90;;;;;;4947802;29;20259;-81
2022/09/17 03:26:49;;;;;;;4.20;2.70;;;10.30;99.90;;;;;;4952392;29;20198;-81
2022/09/17 03:29:16;;;;;;;2.60;2.40;;;10.20;99.90;;;;;;4933603;29;20630;-82
2022/09/17 03:31:43;;;;;;;2.60;2.40;;;10.20;99.90;;;;;;4940148;29;20218;-79
2022/09/17 03:34:09;;;;;;;6.03;5.63;;;10.20;99.90;;;;;;4939970;29;20630;-81
2022/09/17 03:36:36;;;;;;;7.20;6.60;;;10.20;99.90;;;;;;4938291;29;20253;-83
2022/09/17 03:39:05;;;;;;;6.00;5.60;;;10.20;99.90;;;;;;4933935;29;20199;-79
2022/09/17 03:41:32;;;;;;;2.70;2.50;;;10.20;99.90;;;;;;4940770;29;20226;-80
2022/09/17 03:43:58;;;;;;;5.00;4.50;;;10.20;99.90;;;;;;4942571;29;20202;-79
2022/09/17 03:46:25;;;;;;;3.50;3.20;;;10.20;99.90;;;;;;4952384;28;20226;-80
2022/09/17 03:48:52;;;;;;;4.30;3.90;;;10.20;99.90;;;;;;4947740;29;20614;-80
2022/09/17 03:51:19;;;;;;;8.23;7.63;;;10.10;99.90;;;;;;4939680;29;20251;-79
2022/09/17 03:53:46;;;;;;;5.57;5.20;;;10.00;99.90;;;;;;4949774;29;20191;-79
2022/09/17 03:56:14;;;;;;;8.50;8.00;;;10.00;99.90;;;;;;4932565;29;20258;-79
2022/09/17 03:58:41;;;;;;;8.43;7.93;;;10.00;99.90;;;;;;4932378;29;20204;-79
2022/09/17 04:01:07;;;;;;;9.70;9.10;;;9.90;99.90;;;;;;4946622;29;20763;-80
2022/09/17 04:03:34;;;;;;;9.57;8.87;;;9.90;99.90;;;;;;4933982;29;20207;-80
2022/09/17 04:06:01;;;;;;;9.03;8.50;;;9.80;99.90;;;;;;4929249;29;20640;-80
2022/09/17 04:08:28;;;;;;;8.60;8.10;;;9.80;99.90;;;;;;4935297;29;20199;-80
2022/09/17 04:10:55;;;;;;;8.27;7.77;;;9.80;99.90;;;;;;4945875;29;20223;-80
2022/09/17 04:13:23;;;;;;;8.67;8.17;;;9.70;99.90;;;;;;4936292;29;20681;-80
2022/09/17 04:15:50;;;;;;;9.37;8.57;;;9.80;99.90;;;;;;4956052;28;20206;-79
2022/09/17 04:18:17;;;;;;;8.87;8.30;;;9.80;99.90;;;;;;4934855;29;20686;-80
2022/09/17 04:20:44;;;;;;;9.13;8.50;;;9.80;99.90;;;;;;4952226;28;20211;-80
2022/09/17 04:23:12;;;;;;;9.23;8.63;;;9.80;99.90;;;;;;4952818;29;20203;-80
2022/09/17 04:25:39;;;;;;;8.83;8.33;;;9.70;99.90;;;;;;4935097;29;20202;-80
2022/09/17 04:28:06;;;;;;;9.23;8.67;;;9.70;99.90;;;;;;4952788;29;20195;-81
2022/09/17 04:30:35;;;;;;;9.50;8.90;;;9.60;99.90;;;;;;4940988;29;20234;-81
2022/09/17 04:33:02;;;;;;;9.43;8.83;;;9.60;99.90;;;;;;4924367;29;20645;-80
2022/09/17 04:35:29;;;;;;;9.50;8.80;;;9.60;99.90;;;;;;4924017;29;20251;-80
2022/09/17 04:37:56;;;;;;;9.00;8.40;;;9.60;99.90;;;;;;4943458;29;20206;-81
2022/09/17 04:40:25;;;;;;;9.20;8.60;;;9.60;99.90;;;;;;4957874;29;20249;-79
2022/09/17 04:42:53;;;;;;;9.30;8.70;;;9.60;99.90;;;;;;4935034;29;20209;-80
2022/09/17 04:45:20;;;;;;;8.90;8.40;;;9.60;99.90;;;;;;4942696;29;20656;-79
2022/09/17 04:47:49;;;;;;;9.47;8.77;;;9.60;99.90;;;;;;4951801;29;20574;-80
2022/09/17 04:50:17;;;;;;;8.87;8.30;;;9.70;99.90;;;;;;4950158;29;20223;-80
2022/09/17 04:52:44;;;;;;;9.50;8.80;;;9.70;99.90;;;;;;4953569;29;20203;-80
2022/09/17 04:55:11;;;;;;;9.40;8.70;;;9.70;99.90;;;;;;4935262;29;20206;-80
2022/09/17 04:57:38;;;;;;;9.10;8.50;;;9.70;99.90;;;;;;4933756;29;20214;-80
2022/09/17 05:00:06;;;;;;;9.70;9.00;;;9.70;99.90;;;;;;4925620;29;20271;-80
2022/09/17 05:02:33;;;;;;;9.23;8.60;;;9.70;99.90;;;;;;4950489;29;20198;-80
2022/09/17 05:05:01;;;;;;;9.00;8.43;;;9.70;99.90;;;;;;4944472;29;20202;-80
2022/09/17 05:07:28;;;;;;;8.87;8.37;;;9.70;99.90;;;;;;4928898;29;20263;-80
2022/09/17 05:09:55;;;;;;;9.50;8.80;;;9.70;99.90;;;;;;4933467;29;20271;-80
2022/09/17 05:12:21;;;;;;;9.63;9.13;;;9.70;99.90;;;;;;4955630;29;20543;-77
2022/09/17 05:14:48;;;;;;;9.80;9.10;;;9.70;99.90;;;;;;4938014;29;20270;-82
2022/09/17 05:17:15;;;;;;;9.40;8.90;;;9.70;99.90;;;;;;4944634;28;20230;-80
2022/09/17 05:19:42;;;;;;;9.50;8.90;;;9.70;99.90;;;;;;4951875;28;20281;-80
2022/09/17 05:22:10;;;;;;;8.70;8.20;;;9.70;99.90;;;;;;4951418;28;20227;-81
2022/09/17 05:24:38;;;;;;;9.10;8.60;;;9.80;99.90;;;;;;4946713;29;20249;-80
2022/09/17 05:27:05;;;;;;;9.10;8.50;;;9.80;99.90;;;;;;4947333;29;20229;-80
2022/09/17 05:29:32;;;;;;;9.27;8.77;;;9.80;99.90;;;;;;4928338;29;20203;-82
2022/09/17 05:31:59;;;;;;;9.10;8.60;;;9.80;99.90;;;;;;4953945;29;20930;-81
2022/09/17 05:34:26;;;;;;;5.60;5.30;;;9.80;99.90;;;;;;4931874;29;20203;-80
2022/09/17 05:36:53;;;;;;;7.07;6.57;;;9.80;99.90;;;;;;4949654;29;20191;-82
2022/09/17 05:39:24;;;;;;;7.63;7.13;;;9.90;99.90;;;;;;4928762;29;20699;-82
2022/09/17 05:41:51;;;;;;;3.30;3.10;;;9.90;99.90;;;;;;4951170;29;20747;-82
2022/09/17 05:44:18;;;;;;;4.53;4.13;;;10.00;99.90;;;;;;4954942;29;20191;-80
2022/09/17 05:46:45;;;;;;;7.60;7.03;;;10.00;99.90;;;;;;4955785;29;20197;-81
2022/09/17 05:49:13;;;;;;;3.63;3.30;;;10.10;99.90;;;;;;4931194;29;20581;-81
2022/09/17 05:51:39;;;;;;;4.37;3.97;;;10.20;99.90;;;;;;4932684;29;20223;-81
2022/09/17 05:54:07;;;;;;;3.33;3.03;;;10.20;99.90;;;;;;4947752;29;20668;-82
2022/09/17 05:56:35;;;;;;;3.10;2.80;;;10.20;99.90;;;;;;4930814;29;20200;-82
2022/09/17 05:59:02;;;;;;;3.07;2.77;;;10.20;99.90;;;;;;4948000;29;20190;-82
2022/09/17 06:01:29;;;;;;;7.27;6.77;;;10.20;99.90;;;;;;4925594;29;20565;-81
2022/09/17 06:03:55;;;;;;;5.07;4.77;;;10.20;99.90;;;;;;4967678;28;20633;-80
2022/09/17 06:06:22;;;;;;;2.83;2.63;;;10.20;99.90;;;;;;4943866;29;20211;-81
2022/09/17 06:08:49;;;;;;;4.33;2.77;;;10.30;99.90;;;;;;4926940;29;20204;-81
2022/09/17 06:11:16;;;;;;;2.80;2.60;;;10.30;99.90;;;;;;4953664;28;20630;-81
2022/09/17 06:13:44;;;;;;;6.87;6.43;;;10.40;99.90;;;;;;4940817;28;20194;-81
2022/09/17 06:16:11;;;;;;;3.20;2.50;;;10.40;99.90;;;;;;4949413;28;20290;-81
2022/09/17 06:18:38;;;;;;;3.20;2.30;;;10.40;99.90;;;;;;4954630;29;20195;-81
2022/09/17 06:21:05;;;;;;;4.50;4.20;;;10.40;99.90;;;;;;4926210;29;20751;-81
2022/09/17 06:23:34;;;;;;;7.30;6.70;;;10.50;99.90;;;;;;4927196;29;20210;-81
2022/09/17 06:26:02;;;;;;;8.20;7.50;;;10.70;99.90;;;;;;4927550;29;20254;-81
2022/09/17 06:28:29;;;;;;;8.30;7.70;;;10.70;99.90;;;;;;4952159;29;20767;-81
2022/09/17 06:31:02;;;;;;;5.23;4.60;;;10.80;99.90;;;;;;4947487;29;20230;-81
2022/09/17 06:33:31;;;;;;;3.20;2.73;;;10.90;99.90;;;;;;4945047;29;20203;-82
2022/09/17 06:35:59;;;;;;;3.20;3.00;;;10.90;99.90;;;;;;4924637;29;20198;-82
2022/09/17 06:38:26;;;;;;;3.10;2.63;;;10.90;99.90;;;;;;4933244;29;20202;-81
2022/09/17 06:40:53;;;;;;;3.37;3.07;;;11.00;99.90;;;;;;4941320;29;20219;-81
2022/09/17 06:43:20;;;;;;;2.70;2.50;;;11.10;99.90;;;;;;4953718;29;20645;-82
2022/09/17 06:45:52;;;;;;;2.80;2.60;;;11.30;99.90;;;;;;4949412;29;20396;-81
2022/09/17 06:48:20;;;;;;;3.00;2.60;;;11.50;99.90;;;;;;4945967;29;20694;-82
2022/09/17 06:50:47;;;;;;;3.17;2.77;;;11.70;99.90;;;;;;4929217;29;20220;-82
2022/09/17 06:53:15;;;;;;;7.33;6.73;;;11.90;99.90;;;;;;4940833;29;20209;-81
2022/09/17 06:55:42;;;;;;;11.90;11.00;;;12.00;99.90;;;;;;4946839;29;20204;-82
2022/09/17 06:58:09;;;;;;;7.93;5.87;;;12.00;99.90;;;;;;4947860;29;20196;-82
2022/09/17 07:00:36;;;;;;;15.93;14.27;;;12.00;99.90;;;;;;4931955;29;20346;-83
2022/09/17 07:03:03;;;;;;;15.73;14.17;;;11.90;99.90;;;;;;4928969;29;20299;-82
2022/09/17 07:05:32;;;;;;;17.50;15.43;;;11.90;99.90;;;;;;4940340;29;20209;-82
2022/09/17 07:08:01;;;;;;;12.23;11.03;;;12.00;99.90;;;;;;4929334;29;20679;-79
2022/09/17 07:10:29;;;;;;;10.17;9.37;;;12.00;99.90;;;;;;4922079;29;20306;-80
2022/09/17 07:12:56;;;;;;;10.07;9.13;;;12.00;99.90;;;;;;4946469;29;20194;-82
2022/09/17 07:15:22;;;;;;;8.80;8.20;;;12.10;99.90;;;;;;4944891;29;20269;-80
2022/09/17 07:17:50;;;;;;;2.70;2.50;;;12.20;99.90;;;;;;4943087;29;20206;-79
2022/09/17 07:20:17;;;;;;;3.00;2.43;;;12.30;99.90;;;;;;4920176;29;20230;-80
2022/09/17 07:22:45;;;;;;;5.30;2.60;;;12.40;99.90;;;;;;4925122;29;20270;-80
2022/09/17 07:25:12;;;;;;;3.30;2.70;;;12.50;99.90;;;;;;4945049;29;20756;-81
2022/09/17 07:27:39;;;;;;;9.60;8.70;;;12.80;99.90;;;;;;4952524;29;20209;-81
2022/09/17 07:30:07;;;;;;;8.17;7.47;;;13.40;99.90;;;;;;4935980;29;20262;-82
2022/09/17 07:32:34;;;;;;;8.30;7.60;;;13.40;99.90;;;;;;4949421;29;20221;-81
2022/09/17 07:35:00;;;;;;;8.77;7.97;;;13.40;99.90;;;;;;4959381;29;20301;-82
2022/09/17 07:37:27;;;;;;;5.63;2.73;;;13.20;99.90;;;;;;4934218;29;20195;-80
2022/09/17 07:39:55;;;;;;;2.70;2.50;;;13.00;99.90;;;;;;4953312;28;20490;-81
2022/09/17 07:42:22;;;;;;;4.83;2.53;;;12.80;99.90;;;;;;4947874;29;20222;-80
2022/09/17 07:44:49;;;;;;;7.60;6.87;;;12.60;99.90;;;;;;4928369;29;20207;-81
2022/09/17 07:47:16;;;;;;;3.60;2.63;;;12.50;99.90;;;;;;4946602;28;20264;-81
2022/09/17 07:49:43;;;;;;;7.80;7.20;;;12.40;99.90;;;;;;4943876;28;20615;-81
2022/09/17 07:52:09;;;;;;;8.20;7.70;;;12.30;99.90;;;;;;4941704;29;20240;-81
2022/09/17 07:54:36;;;;;;;8.33;7.50;;;12.30;99.90;;;;;;4948045;29;20248;-81
2022/09/17 07:57:05;;;;;;;9.80;9.00;;;12.20;99.90;;;;;;4929442;29;20233;-80
2022/09/17 07:59:32;;;;;;;9.90;9.10;;;12.20;99.90;;;;;;4927655;29;20214;-81
2022/09/17 08:01:59;;;;;;;8.50;8.00;;;12.10;99.90;;;;;;4928800;29;20281;-81
2022/09/17 08:04:26;;;;;;;9.60;8.70;;;12.10;99.90;;;;;;4955386;29;20257;-81
2022/09/17 08:06:52;;;;;;;9.10;8.30;;;12.20;99.90;;;;;;4945812;29;20211;-80
2022/09/17 08:09:19;;;;;;;9.30;8.50;;;12.30;99.90;;;;;;4953742;28;20237;-82
2022/09/17 08:11:46;;;;;;;8.57;7.90;;;12.40;99.90;;;;;;4933472;29;20221;-80
2022/09/17 08:14:15;;;;;;;8.67;7.80;;;12.40;99.90;;;;;;4961064;28;20201;-80
2022/09/17 08:16:44;;;;;;;8.50;7.80;;;12.40;99.90;;;;;;4960475;28;20202;-81
2022/09/17 08:19:11;;;;;;;8.67;8.00;;;12.50;99.90;;;;;;4938897;29;20257;-81
2022/09/17 08:21:38;;;;;;;8.53;7.80;;;12.40;99.90;;;;;;4943315;29;20281;-80
2022/09/17 08:24:05;;;;;;;9.13;8.33;;;12.30;99.90;;;;;;4955951;29;20209;-80
2022/09/17 08:26:32;;;;;;;9.43;8.63;;;12.20;99.90;;;;;;4955395;29;20210;-81
2022/09/17 08:28:59;;;;;;;10.00;9.20;;;12.00;99.90;;;;;;4938380;29;20739;-80
2022/09/17 08:31:29;;;;;;;9.37;8.57;;;11.90;99.90;;;;;;4926041;29;20234;-83
2022/09/17 08:33:56;;;;;;;9.17;8.47;;;11.80;99.90;;;;;;4928777;29;20290;-81
2022/09/17 08:36:24;;;;;;;10.37;9.57;;;11.90;99.90;;;;;;4933276;29;20209;-81
2022/09/17 08:38:53;;;;;;;9.30;8.60;;;11.90;99.90;;;;;;4933669;29;20204;-81
2022/09/17 08:41:28;;;;;;;9.00;8.40;;;11.90;99.90;;;;;;4928169;29;20230;-81
2022/09/17 08:44:07;;;;;;;9.80;9.13;;;11.90;99.90;;;;;;4936652;29;20209;-79
2022/09/17 08:46:47;;;;;;;9.40;8.50;;;12.00;99.90;;;;;;4950846;28;20256;-81
2022/09/17 08:49:24;;;;;;;9.17;8.30;;;12.00;99.90;;;;;;4959176;28;20201;-80
2022/09/17 08:52:06;;;;;;;9.50;8.70;;;12.10;99.90;;;;;;4950642;29;20212;-80
2022/09/17 08:54:39;;;;;;;8.87;8.23;;;12.00;99.90;;;;;;4951454;29;20269;-81
2022/09/17 08:57:17;;;;;;;9.30;8.60;;;12.00;99.90;;;;;;4949793;29;20202;-80
2022/09/17 08:59:52;;;;;;;9.23;8.43;;;12.00;99.90;;;;;;4931522;29;20209;-81
2022/09/17 09:02:36;;;;;;;8.20;7.70;;;11.90;99.90;;;;;;4970044;28;20224;-81
2022/09/17 09:05:14;;;;;;;9.10;8.37;;;12.00;99.90;;;;;;4934829;29;20615;-81
2022/09/17 09:07:45;;;;;;;9.50;8.90;;;11.90;99.90;;;;;;4948470;29;20984;-81
2022/09/17 09:10:21;;;;;;;9.50;8.90;;;12.00;99.90;;;;;;4943995;29;20277;-78
2022/09/17 09:12:50;;;;;;;9.70;9.00;;;12.00;99.90;;;;;;4927223;29;20202;-81
2022/09/17 09:15:35;;;;;;;9.40;8.80;;;12.20;99.90;;;;;;4941836;29;20209;-81
2022/09/17 09:18:12;;;;;;;10.03;9.20;;;12.30;99.90;;;;;;4953942;29;20626;-81
2022/09/17 09:20:48;;;;;;;9.77;8.87;;;12.30;99.90;;;;;;4934040;29;20239;-81
2022/09/17 09:23:19;;;;;;;9.50;8.70;;;12.40;99.90;;;;;;4946815;29;20225;-81
2022/09/17 09:25:54;;;;;;;9.90;8.97;;;12.70;99.90;;;;;;4932005;29;20551;-81
2022/09/17 09:28:51;;;;;;;9.10;8.50;;;13.00;99.90;;;;;;4954129;28;20257;-81
2022/09/17 09:31:33;;;;;;;4.77;2.50;;;13.40;99.90;;;;;;4950261;28;20251;-82
2022/09/17 09:34:03;;;;;;;6.07;2.70;;;13.90;99.90;;;;;;4968358;28;20206;-81
2022/09/17 09:36:32;;;;;;;5.97;5.47;;;14.10;99.90;;;;;;4935180;29;20200;-80
2022/09/17 09:39:04;;;;;;;5.47;2.50;;;14.30;99.90;;;;;;4927772;29;20222;-81
2022/09/17 09:41:36;;;;;;;7.90;7.30;;;14.30;99.90;;;;;;4945684;29;20717;-81
2022/09/17 09:44:05;;;;;;;2.70;2.50;;;14.30;99.90;;;;;;4931606;29;20200;-81
2022/09/17 09:46:44;;;;;;;9.73;9.03;;;14.20;99.90;;;;;;4946079;29;20190;-81
2022/09/17 09:49:22;;;;;;;9.13;8.53;;;14.10;99.90;;;;;;4928784;29;20532;-78
2022/09/17 09:52:03;;;;;;;8.77;8.07;;;14.00;99.90;;;;;;4949432;28;20276;-82
2022/09/17 09:54:43;;;;;;;6.13;4.40;;;14.00;99.90;;;;;;4945598;29;20251;-82
2022/09/17 09:57:13;;;;;;;10.53;9.60;;;14.10;99.90;;;;;;4945176;29;20201;-81
2022/09/17 09:59:41;;;;;;;9.27;8.50;;;14.20;99.90;;;;;;4950763;29;20712;-82
2022/09/17 10:02:08;;;;;;;9.57;8.80;;;14.40;99.90;;;;;;4931596;29;20225;-81
2022/09/17 10:04:39;;;;;;;5.37;2.90;;;14.50;99.90;;;;;;4956781;29;20231;-81
2022/09/17 10:07:08;;;;;;;8.70;8.10;;;14.80;99.90;;;;;;4930478;29;20258;-80
2022/09/17 10:09:36;;;;;;;9.80;8.90;;;15.10;99.90;;;;;;4947723;29;20201;-80
2022/09/17 10:12:06;;;;;;;8.00;7.20;;;15.20;99.90;;;;;;4947441;29;20761;-84
2022/09/17 10:14:34;;;;;;;10.37;9.43;;;15.10;99.90;;;;;;4946179;29;20221;-82
2022/09/17 10:17:15;;;;;;;11.63;8.80;;;15.00;99.90;;;;;;4938434;29;20266;-83
2022/09/17 10:19:45;;;;;;;9.60;8.80;;;15.00;99.90;;;;;;4945041;29;20198;-83
2022/09/17 10:22:23;;;;;;;10.03;9.13;;;15.00;99.90;;;;;;4938940;29;20290;-84
2022/09/17 10:24:52;;;;;;;10.00;9.00;;;14.90;99.90;;;;;;4951250;29;20208;-84
2022/09/17 10:27:21;;;;;;;9.63;8.77;;;14.60;99.90;;;;;;4944864;29;20202;-83
2022/09/17 10:29:50;;;;;;;10.13;9.10;;;14.50;99.90;;;;;;4948266;29;20206;-82
2022/09/17 10:32:19;;;;;;;9.87;8.93;;;14.40;99.90;;;;;;4929457;29;20206;-84
2022/09/17 10:35:03;;;;;;;11.70;9.30;;;14.40;99.90;;;;;;4933777;29;20274;-82
2022/09/17 10:37:36;;;;;;;8.87;8.07;;;14.30;99.90;;;;;;4936842;29;20297;-84
2022/09/17 10:40:27;;;;;;;9.37;8.57;;;14.40;99.90;;;;;;4935210;28;20257;-84
2022/09/17 10:43:17;;;;;;;9.83;9.03;;;14.40;99.90;;;;;;4938712;29;20696;-85
2022/09/17 10:45:53;;;;;;;7.87;5.87;;;14.50;99.90;;;;;;4950155;29;20205;-83
2022/09/17 10:48:21;;;;;;;4.27;3.43;;;14.80;99.90;;;;;;4934393;29;20773;-85
2022/09/17 10:50:51;;;;;;;5.47;3.43;;;15.00;99.90;;;;;;4937873;29;20225;-84
2022/09/17 10:53:20;;;;;;;6.00;5.40;;;14.90;99.90;;;;;;4945638;28;20644;-84
2022/09/17 10:55:52;;;;;;;9.33;8.47;;;14.90;99.90;;;;;;4946479;28;20202;-83
2022/09/17 10:58:30;;;;;;;8.60;8.00;;;15.00;99.90;;;;;;4941085;29;20206;-85
2022/09/17 11:01:06;;;;;;;9.23;8.33;;;15.10;99.90;;;;;;4937607;29;20601;-86
2022/09/17 11:03:55;;;;;;;8.50;7.80;;;15.20;99.90;;;;;;4943982;29;20214;-84
2022/09/17 11:06:49;;;;;;;8.60;7.90;;;14.90;99.90;;;;;;4930358;29;20271;-84
2022/09/17 11:09:26;;;;;;;7.90;7.30;;;14.50;99.90;;;;;;4930616;29;20214;-85
2022/09/17 11:12:04;;;;;;;8.43;7.73;;;14.40;99.90;;;;;;4944397;29;20224;-85
2022/09/17 11:14:46;;;;;;;8.13;7.57;;;14.30;99.90;;;;;;4926440;29;20264;-85
2022/09/17 11:17:25;;;;;;;8.73;8.13;;;14.50;99.90;;;;;;4940468;29;20212;-85
2022/09/17 11:19:58;;;;;;;9.20;8.00;;;15.00;99.90;;;;;;4929083;29;20679;-85
2022/09/17 11:22:34;;;;;;;8.30;7.67;;;15.40;99.90;;;;;;4926756;29;20219;-85
2022/09/17 11:25:17;;;;;;;9.07;8.37;;;15.80;99.90;;;;;;4929179;29;20259;-86
2022/09/17 11:28:00;;;;;;;9.33;8.43;;;16.40;99.90;;;;;;4943360;29;20202;-84
2022/09/17 11:30:33;;;;;;;3.90;2.80;;;16.70;99.90;;;;;;4938323;29;20233;-81
2022/09/17 11:33:19;;;;;;;7.87;7.27;;;16.70;99.90;;;;;;4947277;29;20253;-85
2022/09/17 11:35:49;;;;;;;8.10;7.50;;;16.60;99.90;;;;;;4925697;29;20603;-85
2022/09/17 11:38:24;;;;;;;6.37;3.67;;;16.50;99.90;;;;;;4926340;29;20229;-85
2022/09/17 11:40:56;;;;;;;6.60;6.00;;;16.20;99.90;;;;;;4949315;29;20439;-86
2022/09/17 11:43:28;;;;;;;2.47;2.00;;;15.90;99.90;;;;;;4923133;29;20694;-85
2022/09/17 11:46:03;;;;;;;8.67;7.90;;;15.60;99.90;;;;;;4952608;29;20205;-85
2022/09/17 11:48:36;;;;;;;9.27;8.57;;;15.30;99.90;;;;;;4943001;29;20208;-85
2022/09/17 11:51:10;;;;;;;9.27;8.53;;;15.30;99.90;;;;;;4922272;29;20225;-85
2022/09/17 11:53:43;;;;;;;7.80;7.20;;;15.40;99.90;;;;;;4944695;29;20679;-86
2022/09/17 11:56:19;;;;;;;8.20;7.50;;;15.60;99.90;;;;;;4939459;29;20328;-85
2022/09/17 11:58:51;;;;;;;8.73;7.93;;;15.70;99.90;;;;;;4948375;29;20256;-85
2022/09/17 12:01:26;;;;;;;7.40;6.90;;;16.00;99.90;;;;;;4927532;29;20302;-85
2022/09/17 12:03:59;;;;;;;7.70;7.20;;;16.40;99.90;;;;;;4944244;29;20218;-84
2022/09/17 12:06:35;;;;;;;7.60;7.10;;;16.60;99.90;;;;;;4940590;29;20298;-85
2022/09/17 12:09:10;;;;;;;3.43;2.20;;;16.70;99.90;;;;;;4927679;29;20298;-86
2022/09/17 12:11:42;;;;;;;2.80;2.10;;;16.60;99.90;;;;;;4934434;29;20256;-83
2022/09/17 12:14:16;;;;;;;7.53;6.83;;;16.50;99.90;;;;;;4950860;29;20257;-84
2022/09/17 12:16:47;;;;;;;5.07;4.67;;;16.60;99.90;;;;;;4946867;29;20202;-85
2022/09/17 12:19:19;;;;;;;8.37;7.50;;;16.50;99.90;;;;;;4939127;29;20585;-84
2022/09/17 12:21:50;;;;;;;7.13;6.53;;;16.70;99.90;;;;;;4932426;29;20643;-84
2022/09/17 12:24:23;;;;;;;7.67;7.17;;;16.70;99.90;;;;;;4949843;29;20297;-85
2022/09/17 12:27:05;;;;;;;3.50;2.40;;;16.90;99.90;;;;;;4932713;29;20261;-85
2022/09/17 12:30:05;;;;;;;7.70;7.10;;;16.90;99.90;;;;;;4941541;28;20206;-85
2022/09/17 12:32:56;;;;;;;7.97;7.37;;;16.80;99.90;;;;;;4934081;28;20198;-87
2022/09/17 12:35:40;;;;;;;7.97;7.37;;;16.70;99.90;;;;;;4936909;28;20217;-85
2022/09/17 12:38:23;;;;;;;8.13;7.53;;;16.50;99.90;;;;;;4947243;28;20255;-85
2022/09/17 12:40:55;;;;;;;5.67;2.00;;;16.30;99.90;;;;;;4946870;28;20217;-84
2022/09/17 12:43:43;;;;;;;7.17;6.50;;;16.00;99.90;;;;;;4946563;29;20222;-84
2022/09/17 12:46:26;;;;;;;6.23;5.73;;;15.80;99.90;;;;;;4956933;29;20617;-84
2022/09/17 12:49:14;;;;;;;8.23;7.43;;;15.80;99.90;;;;;;4961592;28;20205;-84
2022/09/17 12:51:55;;;;;;;7.37;6.83;;;15.80;99.90;;;;;;4955594;28;20802;-84
2022/09/17 12:54:56;;;;;;;8.07;7.57;;;16.00;99.90;;;;;;4963699;28;20201;-83
2022/09/17 12:57:37;;;;;;;2.83;2.10;;;16.20;99.90;;;;;;4931454;29;20203;-82
2022/09/17 13:00:07;;;;;;;3.33;1.97;;;16.60;99.90;;;;;;4931775;28;20617;-80
2022/09/17 13:02:40;;;;;;;4.03;2.23;;;16.70;99.90;;;;;;4945139;29;20290;-79
2022/09/17 13:05:31;;;;;;;3.47;2.33;;;16.90;99.90;;;;;;4926060;29;20253;-80
2022/09/17 13:08:27;;;;;;;3.03;2.10;;;17.10;99.90;;;;;;4949135;29;20203;-80
2022/09/17 13:11:25;;;;;;;4.03;1.90;;;17.20;99.90;;;;;;4946240;29;20222;-81